Athol, ID (83801)

3:11 AM PST on February 10, 2016 (GMT -0800)
Spirit Lake | | Change Station
CLOSE
Current Station
Personal Weather Station
Location: Spirit Lake, ID
Elevation: 2598 ft
Nearby Weather Stations

Elev 2598 ft 47.95 °N, 116.83 °W | Updated 3 minutes ago

Clear
Clear
22.5 °F
Feels Like 22 °F
N
0.0
Wind Variable Wind from WSW

Today
High -- | Low -- °F
--% Chance of Precip.
Yesterday
High -- | Low -- °F
Precip. -- in
Pressure 30.23 in
Visibility 1.5 miles
Clouds Scattered Clouds 100 ft
Windchill 22 °F
Dew Point 22 °F
Humidity 99%
Rainfall 0.00 in
Snow Depth Not available.
7:01 AM 5:00 PM
Waxing Crescent, 5% visible
METAR KCOE 101055Z AUTO 10003KT 1 1/2SM SCT001 M01/M03 A3023 RMK AO1
Pressure 30.23 in
Visibility 1.5 miles
Clouds Scattered Clouds 100 ft
Windchill 22 °F
Dew Point 22 °F
Humidity 99%
Rainfall 0.00 in
Snow Depth Not available.
7:01 AM 5:00 PM
Waxing Crescent, 5% visible
METAR KCOE 101055Z AUTO 10003KT 1 1/2SM SCT001 M01/M03 A3023 RMK AO1

10-Day Weather Forecast

Almanac

Astronomy

Feb. 10, 2016 Rise Set
Actual Time
Civil Twilight
Nautical Twilight
Astronomical Twilight
Moon
Length of Visible Light
Length of Day
Tomorrow will be .
, % of the Moon is Illuminated

Today's Extremes

State Highs State Lows

Community

WunderPhotos

Upload Photos

1,891,830 photos uploaded!

WunderBlog® & News

Nearby

Air Quality

  Air Quality AQ Index Pollutant
Not available.

Snow Depth

Station Depth Elevation

Earthquake Activity

City Distance Mag. Time & Date
Minimum magnitude displayed is 2.5.

Coastal Water Temperatures

Place Temperature

Stations

Nearby Weather Stations

Station Location Temp. Windchill Dew Point Humidity Wind Precip. Elev Updated Type
                   

Watches & Warnings

There are currently no watches in effect.